Time;durP1;ratioP1;P1;durP2;ratioP2;P2;SDS_P1;SDS_P2;PMS_P1;PMS_P2;Temp;Humidity;BMP_temperature;BMP_pressure;BME280_temperature;BME280_humidity;BME280_pressure;Samples;Min_cycle;Max_cycle;Signal;HPM_P1;HPM_P2
2023/04/11 00:00:09;;;;;;;11.43;7.40;;;;;;;8.54;82.97;94615.94;5011310;28;20212;-75
2023/04/11 00:02:37;;;;;;;10.23;6.90;;;;;;;8.35;82.61;94571.38;5005518;28;20611;-75
2023/04/11 00:05:07;;;;;;;10.80;7.95;;;;;;;8.47;83.22;94594.16;4994031;28;20432;-76
2023/04/11 00:07:32;;;;;;;11.73;7.60;;;;;;;8.50;82.80;94596.38;5000977;28;20420;-76
2023/04/11 00:09:58;;;;;;;10.23;7.47;;;;;;;8.52;82.94;94591.72;5000994;28;20426;-76
2023/04/11 00:12:23;;;;;;;14.07;8.50;;;;;;;8.31;82.86;94545.53;5003881;28;20191;-76
2023/04/11 00:14:48;;;;;;;11.53;8.10;;;;;;;8.53;83.25;94593.34;5013574;28;20406;-76
2023/04/11 00:17:16;;;;;;;9.67;7.07;;;;;;;8.46;82.93;94581.25;5001686;28;20172;-76
2023/04/11 00:19:42;;;;;;;9.80;7.95;;;;;;;8.48;83.38;94584.44;5002802;28;20424;-76
2023/04/11 00:22:09;;;;;;;11.70;8.45;;;;;;;8.38;83.57;94582.28;5006398;28;21014;-75
2023/04/11 00:24:34;;;;;;;10.90;8.32;;;;;;;8.21;83.80;94546.97;5010429;28;20441;-76
2023/04/11 00:27:00;;;;;;;11.00;7.33;;;;;;;8.41;83.71;94581.84;5006184;28;20184;-76
2023/04/11 00:29:26;;;;;;;10.77;7.70;;;;;;;8.43;83.81;94589.50;5004299;28;20207;-76
2023/04/11 00:31:54;;;;;;;11.20;7.70;;;;;;;8.44;83.64;94581.44;5008759;28;20229;-76
2023/04/11 00:34:22;;;;;;;13.50;9.10;;;;;;;8.42;84.19;94580.03;4993407;28;20420;-76
2023/04/11 00:36:47;;;;;;;11.32;8.38;;;;;;;8.13;84.38;94541.94;5009828;28;20906;-76
2023/04/11 00:39:13;;;;;;;10.20;7.20;;;;;;;8.40;83.93;94569.75;5005244;28;20180;-76
2023/04/11 00:41:39;;;;;;;10.70;7.33;;;;;;;8.36;83.73;94552.00;4996960;28;20190;-76
2023/04/11 00:44:05;;;;;;;10.60;7.73;;;;;;;8.28;83.63;94548.56;4999339;28;20197;-76
2023/04/11 00:46:31;;;;;;;9.27;6.57;;;;;;;8.42;83.50;94572.16;5003170;28;20280;-76
2023/04/11 00:48:57;;;;;;;10.70;8.23;;;;;;;8.35;84.05;94569.56;5004233;28;20828;-77
2023/04/11 00:51:22;;;;;;;10.37;7.77;;;;;;;8.42;83.48;94572.97;5003709;28;20187;-78
2023/04/11 00:53:47;;;;;;;11.47;7.70;;;;;;;8.26;83.70;94549.78;4997433;28;20252;-77
2023/04/11 00:56:13;;;;;;;10.23;7.00;;;;;;;8.40;83.79;94572.38;5009107;28;20323;-77
2023/04/11 00:58:39;;;;;;;13.00;8.57;;;;;;;8.42;83.91;94575.59;5007031;28;20410;-78
2023/04/11 01:01:08;;;;;;;10.98;8.73;;;;;;;8.40;84.08;94571.56;4997146;28;20495;-77
2023/04/11 01:03:44;;;;;;;11.13;8.93;;;;;;;8.40;84.08;94576.78;5005696;28;20431;-76
2023/04/11 01:06:11;;;;;;;10.03;7.73;;;;;;;8.37;84.53;94574.59;5001004;28;20486;-77
2023/04/11 01:08:37;;;;;;;10.10;7.47;;;;;;;8.47;83.91;94581.06;5012996;28;20642;-77
2023/04/11 01:11:04;;;;;;;9.23;7.03;;;;;;;8.42;83.40;94561.66;5007643;28;20177;-77
2023/04/11 01:13:30;;;;;;;10.23;6.60;;;;;;;8.43;83.60;94556.22;5000600;28;20166;-77
2023/04/11 01:15:56;;;;;;;11.13;6.87;;;;;;;8.54;83.88;94576.59;5000185;28;20235;-77
2023/04/11 01:18:21;;;;;;;9.50;6.93;;;;;;;8.57;83.65;94572.72;5007267;28;20184;-77
2023/04/11 01:20:47;;;;;;;8.90;6.50;;;;;;;8.53;83.44;94577.59;5001862;28;20180;-77
2023/04/11 01:23:13;;;;;;;11.07;7.23;;;;;;;8.54;83.36;94581.84;5007241;28;20181;-77
2023/04/11 01:25:39;;;;;;;9.95;7.13;;;;;;;8.39;83.39;94557.63;5001990;28;20421;-77
2023/04/11 01:28:05;;;;;;;11.63;7.10;;;;;;;8.50;83.65;94585.06;5002665;28;20252;-77
2023/04/11 01:30:30;;;;;;;10.37;7.07;;;;;;;8.36;83.81;94568.56;4998999;28;20199;-77
2023/04/11 01:32:56;;;;;;;11.93;7.43;;;;;;;8.48;83.61;94587.88;5002565;28;20711;-77
2023/04/11 01:35:21;;;;;;;11.20;7.90;;;;;;;8.51;83.93;94587.47;5001616;28;20408;-77
2023/04/11 01:37:47;;;;;;;9.47;7.20;;;;;;;8.45;84.26;94585.69;5012596;28;20421;-77
2023/04/11 01:40:18;;;;;;;11.67;7.07;;;;;;;8.41;83.70;94565.31;5013474;28;20258;-77
2023/04/11 01:42:44;;;;;;;10.27;6.57;;;;;;;8.52;83.85;94575.97;4996891;28;20173;-76
2023/04/11 01:45:11;;;;;;;10.23;6.30;;;;;;;8.46;83.47;94576.00;5007990;28;20204;-76
2023/04/11 01:47:37;;;;;;;11.45;7.93;;;;;;;8.48;83.58;94577.38;5004008;28;20439;-76
2023/04/11 01:50:03;;;;;;;12.60;7.83;;;;;;;8.29;83.63;94536.25;4993413;28;20211;-76
2023/04/11 01:52:28;;;;;;;10.80;7.23;;;;;;;8.45;83.29;94566.53;4997763;28;20572;-76
2023/04/11 01:54:54;;;;;;;12.03;7.87;;;;;;;8.27;84.07;94536.47;5010947;28;20399;-76
2023/04/11 01:57:19;;;;;;;11.63;7.77;;;;;;;8.48;83.78;94558.22;5009266;28;20674;-76
2023/04/11 01:59:45;;;;;;;10.13;7.27;;;;;;;8.41;83.03;94555.63;4995478;28;20260;-76
2023/04/11 02:02:10;;;;;;;12.80;8.10;;;;;;;8.29;83.63;94536.25;5011668;28;20536;-76
2023/04/11 02:04:36;;;;;;;12.03;8.57;;;;;;;8.39;84.10;94562.88;4992478;28;20428;-76
2023/04/11 02:07:01;;;;;;;13.60;8.68;;;;;;;8.42;83.68;94554.59;4995346;28;20424;-76
2023/04/11 02:09:27;;;;;;;12.53;9.10;;;;;;;8.38;84.14;94555.25;4991558;28;20416;-76
2023/04/11 02:11:52;;;;;;;11.60;8.17;;;;;;;8.43;83.53;94558.84;5002871;28;20645;-76
2023/04/11 02:14:19;;;;;;;12.67;8.43;;;;;;;8.41;83.40;94553.00;4993750;28;20176;-76
2023/04/11 02:16:53;;;;;;;14.75;9.15;;;;;;;8.42;83.88;94559.84;4994301;28;20465;-76
2023/04/11 02:19:19;;;;;;;14.27;9.00;;;;;;;8.22;83.38;94535.44;5001463;28;20331;-76
2023/04/11 02:21:45;;;;;;;13.15;10.00;;;;;;;8.11;84.04;94541.31;4993371;28;21007;-76
2023/04/11 02:24:11;;;;;;;13.00;8.27;;;;;;;8.28;84.26;94560.88;5001290;28;20197;-76
2023/04/11 02:26:36;;;;;;;13.93;8.83;;;;;;;8.29;84.15;94570.34;5008652;28;20172;-76
2023/04/11 02:29:01;;;;;;;22.07;13.63;;;;;;;8.30;84.09;94566.72;5006101;28;20180;-76
2023/04/11 02:31:27;;;;;;;33.37;21.47;;;;;;;8.25;84.30;94548.16;5011974;28;20306;-76
2023/04/11 02:33:52;;;;;;;30.77;20.53;;;;;;;8.38;83.49;94568.34;5009253;28;20177;-76
2023/04/11 02:36:18;;;;;;;28.90;20.93;;;;;;;8.33;83.70;94566.31;4999816;28;20420;-76
2023/04/11 02:38:43;;;;;;;21.43;14.13;;;;;;;8.30;83.34;94561.47;4999616;28;20259;-76
2023/04/11 02:41:09;;;;;;;16.73;10.03;;;;;;;8.42;82.98;94566.91;5002415;28;20263;-76
2023/04/11 02:43:34;;;;;;;15.57;10.53;;;;;;;8.38;82.95;94569.16;5004454;28;20433;-76
2023/04/11 02:46:00;;;;;;;12.30;7.97;;;;;;;8.20;83.23;94538.28;5009222;28;20187;-76
2023/04/11 02:48:25;;;;;;;14.57;9.40;;;;;;;8.31;83.39;94561.28;4993698;28;20192;-76
2023/04/11 02:50:51;;;;;;;18.73;11.23;;;;;;;8.34;83.07;94560.06;5010532;28;20184;-76
2023/04/11 02:53:17;;;;;;;18.87;11.33;;;;;;;8.36;83.22;94547.56;5006960;28;20275;-76
2023/04/11 02:55:43;;;;;;;16.13;10.83;;;;;;;8.29;83.48;94549.38;5004218;28;20243;-76
2023/04/11 02:58:08;;;;;;;16.50;11.57;;;;;;;8.00;83.93;94523.59;5001897;28;20419;-76
2023/04/11 03:00:33;;;;;;;16.10;10.10;;;;;;;8.10;83.80;94534.47;4999263;28;20181;-76
2023/04/11 03:02:59;;;;;;;19.98;11.90;;;;;;;8.21;84.23;94546.97;5008062;28;20431;-76
2023/04/11 03:05:24;;;;;;;16.87;10.90;;;;;;;8.01;83.84;94512.91;4996456;28;20230;-76
2023/04/11 03:07:50;;;;;;;21.67;14.85;;;;;;;8.05;83.90;94539.50;4990153;28;20424;-76
2023/04/11 03:10:15;;;;;;;21.70;13.17;;;;;;;8.11;83.11;94546.56;5006772;28;20264;-76
2023/04/11 03:12:41;;;;;;;23.20;14.48;;;;;;;7.97;83.43;94536.06;4993551;28;20441;-76
2023/04/11 03:15:07;;;;;;;21.47;12.50;;;;;;;8.08;83.90;94544.34;4999678;28;20172;-76
2023/04/11 03:17:33;;;;;;;17.17;10.77;;;;;;;7.96;84.07;94539.69;4998897;28;20184;-76
2023/04/11 03:19:58;;;;;;;19.43;11.77;;;;;;;8.00;84.06;94547.97;4998931;28;20177;-76
2023/04/11 03:22:24;;;;;;;17.33;13.17;;;;;;;7.96;84.69;94544.94;4997791;28;20465;-76
2023/04/11 03:24:49;;;;;;;18.20;11.07;;;;;;;8.02;84.77;94545.16;5000800;28;21003;-76
2023/04/11 03:27:15;;;;;;;20.40;13.70;;;;;;;7.90;83.70;94516.94;4990716;28;20507;-76
2023/04/11 03:29:40;;;;;;;15.10;10.47;;;;;;;8.03;83.67;94536.28;5008250;28;20182;-77
2023/04/11 03:32:05;;;;;;;19.60;11.13;;;;;;;8.12;83.58;94545.56;5005080;28;20746;-77
2023/04/11 03:34:31;;;;;;;17.47;10.83;;;;;;;8.04;83.41;94522.19;4999618;28;20173;-77
2023/04/11 03:36:56;;;;;;;16.23;11.70;;;;;;;8.04;83.53;94543.97;4993001;28;20900;-77
2023/04/11 03:39:21;;;;;;;18.33;12.30;;;;;;;8.01;83.84;94544.34;5002956;28;20413;-77
2023/04/11 03:41:47;;;;;;;19.23;13.10;;;;;;;7.80;84.26;94527.00;5007116;28;20505;-77
2023/04/11 03:44:13;;;;;;;21.93;12.70;;;;;;;7.95;83.94;94545.97;5001817;28;20196;-77
2023/04/11 03:46:39;;;;;;;18.73;12.17;;;;;;;7.99;84.27;94546.38;5002384;28;20226;-77
2023/04/11 03:49:04;;;;;;;20.30;12.50;;;;;;;8.05;84.18;94542.13;4999129;28;20444;-77
2023/04/11 03:51:30;;;;;;;19.25;12.70;;;;;;;7.91;84.16;94526.41;4996109;28;20505;-77
2023/04/11 03:53:56;;;;;;;18.93;11.00;;;;;;;7.99;83.44;94542.94;4999445;28;20165;-77
2023/04/11 03:56:21;;;;;;;21.33;14.50;;;;;;;7.96;83.49;94537.09;5003902;28;20846;-77
2023/04/11 03:58:47;;;;;;;20.20;14.63;;;;;;;7.99;83.68;94540.31;4991123;28;20448;-77
2023/04/11 04:01:12;;;;;;;19.87;13.87;;;;;;;7.86;83.75;94535.91;4997045;28;21071;-77
2023/04/11 04:03:37;;;;;;;18.13;12.10;;;;;;;7.93;83.95;94529.63;4996544;28;20198;-77
2023/04/11 04:06:03;;;;;;;21.17;13.57;;;;;;;8.00;83.77;94547.16;4993311;28;20416;-77
2023/04/11 04:08:28;;;;;;;21.33;13.33;;;;;;;8.01;83.81;94539.09;4997938;28;20195;-76
2023/04/11 04:10:54;;;;;;;19.27;13.93;;;;;;;7.88;83.76;94545.16;4990081;28;20466;-77
2023/04/11 04:13:19;;;;;;;19.33;11.53;;;;;;;8.00;84.04;94547.97;5006075;28;20184;-77
2023/04/11 04:15:44;;;;;;;17.60;11.17;;;;;;;8.09;83.28;94541.53;5009060;28;20173;-77
2023/04/11 04:18:10;;;;;;;21.40;13.73;;;;;;;7.89;83.64;94551.19;5011082;28;20472;-77
2023/04/11 04:20:35;;;;;;;19.57;13.63;;;;;;;7.87;84.34;94550.63;5004451;28;20407;-77
2023/04/11 04:23:03;;;;;;;18.00;12.10;;;;;;;7.88;83.94;94545.16;5000914;28;20188;-77
2023/04/11 04:25:29;;;;;;;19.40;12.65;;;;;;;7.93;83.85;94542.75;5005782;28;20432;-76
2023/04/11 04:27:56;;;;;;;19.60;12.27;;;;;;;7.99;83.64;94542.94;5009413;28;20235;-75
2023/04/11 04:30:22;;;;;;;19.07;12.20;;;;;;;7.96;83.95;94541.50;5005395;28;20208;-77
2023/04/11 04:32:53;;;;;;;20.23;13.05;;;;;;;8.03;84.07;94544.16;5005429;28;20473;-78
2023/04/11 04:35:19;;;;;;;24.20;13.80;;;;;;;8.03;83.69;94537.09;5006061;28;20177;-77
2023/04/11 04:37:44;;;;;;;24.08;14.60;;;;;;;8.05;83.38;94535.06;5004970;28;20893;-77
2023/04/11 04:40:14;;;;;;;21.80;12.30;;;;;;;8.07;83.33;94540.09;4997798;28;20185;-77
2023/04/11 04:42:41;;;;;;;19.60;13.82;;;;;;;7.99;83.10;94540.31;5011824;28;20414;-77
2023/04/11 04:45:08;;;;;;;19.73;12.98;;;;;;;7.76;82.97;94525.81;4994664;28;21001;-77
2023/04/11 04:47:35;;;;;;;20.42;13.18;;;;;;;7.83;83.58;94537.09;5000336;28;20455;-77
2023/04/11 04:50:00;;;;;;;19.03;13.30;;;;;;;7.87;84.30;94533.06;5008249;28;20447;-77
2023/04/11 04:52:28;;;;;;;20.48;14.05;;;;;;;7.96;83.93;94536.28;4997705;28;20431;-77
2023/04/11 04:54:57;;;;;;;19.33;13.95;;;;;;;7.93;84.07;94541.94;5012406;28;20411;-77
2023/04/11 04:57:26;;;;;;;21.60;12.87;;;;;;;7.96;83.77;94534.47;5000378;28;20177;-77
2023/04/11 04:59:52;;;;;;;20.43;12.17;;;;;;;8.05;83.29;94540.31;5000673;28;20566;-77
2023/04/11 05:02:18;;;;;;;23.30;14.27;;;;;;;8.07;83.81;94540.91;4994451;28;20649;-77
2023/04/11 05:04:43;;;;;;;18.50;11.37;;;;;;;7.93;82.95;94519.16;5000257;28;20296;-77
2023/04/11 05:07:12;;;;;;;21.33;12.10;;;;;;;8.10;83.01;94531.84;5003560;28;20225;-77
2023/04/11 05:09:38;;;;;;;21.20;11.57;;;;;;;8.16;82.76;94541.50;5010912;28;20179;-77
2023/04/11 05:12:03;;;;;;;16.00;10.67;;;;;;;8.14;81.90;94522.53;5003163;28;20177;-77
2023/04/11 05:14:28;;;;;;;18.57;11.37;;;;;;;8.24;82.06;94538.66;5009006;28;20227;-77
2023/04/11 05:16:54;;;;;;;18.27;11.87;;;;;;;8.27;81.89;94533.03;5005460;28;20181;-77
2023/04/11 05:19:19;;;;;;;20.13;12.33;;;;;;;8.22;81.98;94524.94;5007025;28;20183;-77
2023/04/11 05:21:45;;;;;;;16.67;11.03;;;;;;;8.30;82.03;94537.88;4996774;28;20260;-77
2023/04/11 05:24:10;;;;;;;17.07;11.23;;;;;;;8.30;81.26;94525.53;5005012;28;20267;-78
2023/04/11 05:26:36;;;;;;;18.03;11.77;;;;;;;8.49;81.30;94541.47;5011081;28;20258;-77
2023/04/11 05:29:01;;;;;;;17.63;11.53;;;;;;;8.56;81.22;94539.66;5005929;28;20306;-77
2023/04/11 05:31:27;;;;;;;20.13;12.13;;;;;;;8.65;80.64;94535.78;4994111;28;20213;-78
2023/04/11 05:33:53;;;;;;;19.67;11.27;;;;;;;8.62;80.16;94521.28;5008924;28;20165;-77
2023/04/11 05:36:18;;;;;;;21.40;12.60;;;;;;;8.83;81.02;94535.13;5007048;28;20227;-77
2023/04/11 05:38:45;;;;;;;18.10;10.37;;;;;;;9.10;79.94;94534.00;5010497;28;20176;-77
2023/04/11 05:41:11;;;;;;;18.17;11.27;;;;;;;9.41;78.39;94533.25;5028384;28;20176;-77
2023/04/11 05:43:36;;;;;;;20.77;11.80;;;;;;;9.58;77.51;94515.94;5006831;28;20184;-76
2023/04/11 05:46:06;;;;;;;18.77;12.50;;;;;;;9.90;76.18;94521.97;5008109;28;20192;-76
2023/04/11 05:48:32;;;;;;;18.13;10.80;;;;;;;10.10;73.89;94504.22;4996595;28;20545;-76
2023/04/11 05:50:57;;;;;;;17.30;10.67;;;;;;;10.65;74.32;94530.59;4996655;28;20172;-76
2023/04/11 05:53:23;;;;;;;16.73;11.20;;;;;;;11.23;72.35;94524.84;5000699;28;20180;-76
2023/04/11 05:55:49;;;;;;;14.37;9.73;;;;;;;11.61;70.29;94527.97;4999074;28;20201;-76
2023/04/11 05:58:14;;;;;;;12.33;8.93;;;;;;;12.19;68.06;94535.22;5005387;28;20261;-76
2023/04/11 06:00:40;;;;;;;15.90;9.90;;;;;;;12.73;66.12;94535.88;4995852;28;20181;-76
2023/04/11 06:03:09;;;;;;;14.47;9.40;;;;;;;13.17;64.49;94537.91;5004469;28;20721;-76
2023/04/11 06:05:35;;;;;;;15.70;9.93;;;;;;;13.88;62.71;94523.34;5001633;28;20201;-76
2023/04/11 06:08:02;;;;;;;15.33;10.23;;;;;;;14.96;59.57;94532.63;5009592;28;20200;-76
2023/04/11 06:10:29;;;;;;;13.93;8.80;;;;;;;15.75;55.86;94537.56;5006959;28;20215;-76
2023/04/11 06:12:55;;;;;;;11.03;8.43;;;;;;;16.13;53.48;94524.13;5000256;28;20256;-76
2023/04/11 06:15:22;;;;;;;12.60;9.23;;;;;;;16.39;53.62;94521.66;5005949;28;20177;-77
2023/04/11 06:17:47;;;;;;;16.63;11.32;;;;;;;16.35;52.89;94509.91;5001479;28;20169;-77
2023/04/11 06:20:13;;;;;;;14.73;8.57;;;;;;;16.11;52.94;94515.59;5001581;28;20549;-77
2023/04/11 06:22:39;;;;;;;29.80;19.27;;;;;;;15.71;54.34;94520.53;5003318;28;20187;-77
2023/04/11 06:25:08;;;;;;;14.10;10.05;;;;;;;15.25;55.34;94476.78;4994611;28;20197;-78
2023/04/11 06:27:34;;;;;;;12.73;9.07;;;;;;;14.94;55.74;94486.25;5001029;28;20181;-77
2023/04/11 06:30:00;;;;;;;11.17;7.70;;;;;;;14.30;56.02;94473.44;5003844;28;20657;-77
2023/04/11 06:32:26;;;;;;;13.10;8.20;;;;;;;14.09;57.71;94489.28;4998077;28;20232;-77
2023/04/11 06:34:51;;;;;;;11.90;9.13;;;;;;;13.82;58.79;94503.13;4995396;28;20635;-76
2023/04/11 06:37:16;;;;;;;12.57;7.90;;;;;;;13.53;59.54;94497.06;5002037;28;20642;-76
2023/04/11 06:39:42;;;;;;;9.00;7.03;;;;;;;13.26;60.28;94498.69;5001389;28;20179;-77
2023/04/11 06:42:07;;;;;;;10.73;7.73;;;;;;;12.84;61.39;94484.88;5005691;28;20175;-77
2023/04/11 06:44:33;;;;;;;11.83;8.07;;;;;;;13.11;62.18;94499.19;5005819;28;20696;-77
2023/04/11 06:46:59;;;;;;;11.43;7.80;;;;;;;13.55;61.33;94488.91;5001823;28;20684;-77
2023/04/11 06:49:25;;;;;;;15.53;8.20;;;;;;;13.95;59.10;94465.75;4995189;28;20172;-77
2023/04/11 06:51:50;;;;;;;10.20;6.83;;;;;;;14.30;56.87;94501.75;4995020;28;20255;-77
2023/04/11 06:54:19;;;;;;;8.93;6.97;;;;;;;14.26;57.86;94488.22;5001881;28;20259;-77
2023/04/11 06:56:45;;;;;;;12.10;7.47;;;;;;;14.41;58.18;94477.06;5006444;28;20225;-77
2023/04/11 06:59:10;;;;;;;9.63;6.87;;;;;;;14.84;56.79;94496.72;5000392;28;20267;-77
2023/04/11 07:01:39;;;;;;;14.43;7.63;;;;;;;14.70;56.40;94486.47;5006618;28;20173;-77
2023/04/11 07:04:05;;;;;;;10.80;7.53;;;;;;;14.75;56.15;94500.84;4998944;28;20203;-76
2023/04/11 07:06:34;;;;;;;8.60;6.57;;;;;;;14.62;56.58;94494.84;5000306;28;20300;-76
2023/04/11 07:09:00;;;;;;;10.47;7.70;;;;;;;14.51;57.47;94498.41;5002808;28;20187;-76
2023/04/11 07:11:26;;;;;;;12.70;7.87;;;;;;;14.43;58.15;94509.41;4997455;28;20252;-76
2023/04/11 07:13:52;;;;;;;13.73;7.90;;;;;;;13.90;58.06;94481.56;5005657;28;21943;-76
2023/04/11 07:16:17;;;;;;;15.27;7.43;;;;;;;13.50;59.15;94475.56;4994875;28;20196;-76
2023/04/11 07:18:43;;;;;;;11.53;7.20;;;;;;;13.10;60.19;94497.56;5002812;28;20196;-76
2023/04/11 07:21:12;;;;;;;11.67;6.93;;;;;;;12.77;61.12;94487.66;5001466;28;20181;-76
2023/04/11 07:23:38;;;;;;;37.07;22.23;;;;;;;12.60;62.37;94493.91;4997377;28;20181;-76
2023/04/11 07:26:03;;;;;;;19.47;12.40;;;;;;;12.54;63.35;94484.28;5003448;28;20185;-76
2023/04/11 07:28:30;;;;;;;15.67;10.10;;;;;;;12.60;63.63;94491.25;4993185;28;20181;-76
2023/04/11 07:30:56;;;;;;;14.10;8.80;;;;;;;12.75;63.03;94486.28;4998696;28;20232;-76
2023/04/11 07:33:22;;;;;;;12.83;8.33;;;;;;;12.66;63.20;94472.63;5002973;28;20196;-75
2023/04/11 07:35:47;;;;;;;13.97;8.40;;;;;;;12.89;64.39;94477.06;5001040;28;20169;-75
2023/04/11 07:38:14;;;;;;;13.00;8.30;;;;;;;13.08;63.82;94475.84;4995649;28;20184;-77
2023/04/11 07:40:40;;;;;;;11.73;8.67;;;;;;;13.14;61.68;94480.25;5002015;28;20172;-77
2023/04/11 07:43:05;;;;;;;10.30;6.97;;;;;;;13.14;61.53;94471.50;5005925;28;20179;-77
2023/04/11 07:45:32;;;;;;;10.03;6.80;;;;;;;13.15;60.34;94465.97;5001221;28;20659;-78
2023/04/11 07:47:57;;;;;;;11.60;7.10;;;;;;;13.03;61.77;94446.69;5020770;28;20259;-77
2023/04/11 07:50:23;;;;;;;9.30;6.60;;;;;;;13.16;61.64;94472.06;4997867;28;20590;-76
2023/04/11 07:52:48;;;;;;;11.27;7.47;;;;;;;13.12;62.48;94458.50;5005971;28;20249;-75
2023/04/11 07:55:14;;;;;;;10.67;7.17;;;;;;;13.56;62.39;94469.34;5013149;28;20168;-75
2023/04/11 07:57:39;;;;;;;11.33;7.13;;;;;;;13.62;59.90;94455.16;5009712;28;20173;-75
2023/04/11 08:00:05;;;;;;;14.60;7.63;;;;;;;13.76;60.51;94432.66;5011169;28;20184;-75
2023/04/11 08:02:31;;;;;;;10.67;7.10;;;;;;;13.48;60.30;94440.66;5004047;28;20173;-76
2023/04/11 08:04:57;;;;;;;9.37;6.83;;;;;;;13.37;60.23;94420.38;5007314;28;20617;-76
2023/04/11 08:07:22;;;;;;;12.33;6.53;;;;;;;13.38;60.03;94457.16;5007621;28;20310;-76
2023/04/11 08:09:47;;;;;;;9.60;6.43;;;;;;;13.35;61.14;94459.44;5005670;28;20180;-76
2023/04/11 08:12:13;;;;;;;10.77;7.00;;;;;;;13.38;60.02;94448.41;5008141;28;20207;-75
2023/04/11 08:14:38;;;;;;;14.60;8.90;;;;;;;13.37;61.27;94446.81;5014518;28;20574;-76
2023/04/11 08:17:04;;;;;;;19.43;6.03;;;;;;;13.27;59.75;94436.84;5010194;28;20184;-76
2023/04/11 08:19:30;;;;;;;8.37;6.00;;;;;;;13.03;61.24;94436.13;5003138;28;20173;-76
2023/04/11 08:21:55;;;;;;;9.83;6.57;;;;;;;13.14;61.65;94439.81;5011845;28;20232;-76
2023/04/11 08:24:21;;;;;;;11.63;7.57;;;;;;;13.02;60.36;94423.94;5013825;28;20204;-75
2023/04/11 08:26:46;;;;;;;8.83;6.30;;;;;;;12.92;61.07;94407.91;5014380;28;20179;-76
2023/04/11 08:29:11;;;;;;;9.17;5.73;;;;;;;12.95;60.90;94418.00;5014113;28;20208;-76
2023/04/11 08:31:44;;;;;;;8.17;5.97;;;;;;;13.00;61.08;94426.03;5013892;28;20295;-75
2023/04/11 08:34:10;;;;;;;11.70;6.83;;;;;;;12.93;60.82;94427.19;4995831;28;20188;-75
2023/04/11 08:36:36;;;;;;;10.17;6.10;;;;;;;12.75;59.87;94414.97;4993966;28;20257;-75
2023/04/11 08:39:01;;;;;;;10.30;6.47;;;;;;;12.61;60.13;94411.81;5010291;28;20339;-75
2023/04/11 08:41:31;;;;;;;7.53;5.57;;;;;;;12.67;61.60;94425.91;4999160;28;20256;-75
2023/04/11 08:43:56;;;;;;;11.67;6.17;;;;;;;12.78;62.89;94417.16;4993845;28;20203;-75
2023/04/11 08:46:22;;;;;;;10.07;6.37;;;;;;;13.00;61.53;94418.09;5011999;28;20574;-75
2023/04/11 08:48:48;;;;;;;9.50;5.60;;;;;;;13.16;61.00;94416.56;5013486;28;20177;-75
2023/04/11 08:51:27;;;;;;;10.57;5.47;;;;;;;13.28;59.42;94409.38;5013287;28;20183;-75
2023/04/11 08:53:58;;;;;;;7.77;5.87;;;;;;;13.43;58.54;94398.25;5008351;28;20177;-74
2023/04/11 08:56:23;;;;;;;8.27;6.10;;;;;;;13.53;59.38;94383.38;5002473;28;20656;-75
2023/04/11 08:58:49;;;;;;;9.63;6.73;;;;;;;13.88;59.25;94398.19;5028096;28;20181;-76
2023/04/11 09:01:27;;;;;;;10.37;7.37;;;;;;;14.06;58.77;94402.41;4998219;28;20185;-76
2023/04/11 09:03:54;;;;;;;9.73;6.70;;;;;;;14.00;56.77;94383.00;5004432;28;20232;-76
2023/04/11 09:06:19;;;;;;;9.13;6.60;;;;;;;14.20;56.73;94401.00;5012173;28;20242;-78
2023/04/11 09:08:45;;;;;;;8.93;6.07;;;;;;;14.45;55.67;94384.66;5013045;28;20644;-75
2023/04/11 09:11:10;;;;;;;7.00;5.53;;;;;;;14.76;57.30;94380.56;5013159;28;20268;-77
2023/04/11 09:13:36;;;;;;;7.67;5.53;;;;;;;15.17;54.99;94393.19;5001986;28;20188;-77
2023/04/11 09:16:09;;;;;;;9.00;6.40;;;;;;;15.57;55.20;94389.34;5010280;28;20184;-77
2023/04/11 09:18:36;;;;;;;11.03;7.10;;;;;;;15.72;52.76;94381.50;5003767;28;20175;-76
2023/04/11 09:21:10;;;;;;;9.77;6.23;;;;;;;15.83;54.00;94378.63;5004594;28;20184;-77
2023/04/11 09:23:36;;;;;;;8.00;6.07;;;;;;;16.00;54.33;94375.06;5013245;28;20172;-77
2023/04/11 09:26:04;;;;;;;6.97;5.10;;;;;;;16.06;52.78;94374.03;4996679;28;20211;-76
2023/04/11 09:28:49;;;;;;;10.13;5.90;;;;;;;15.84;52.03;94374.13;5000344;28;20173;-77
2023/04/11 09:31:15;;;;;;;10.80;6.67;;;;;;;15.67;52.88;94358.34;4993750;28;20240;-77
2023/04/11 09:33:58;;;;;;;7.27;5.67;;;;;;;15.46;51.70;94351.28;4999946;28;20173;-76
2023/04/11 09:36:26;;;;;;;8.83;6.10;;;;;;;15.40;52.18;94373.50;4993121;28;20300;-76
2023/04/11 09:38:52;;;;;;;8.37;6.23;;;;;;;15.10;52.49;94364.22;5001455;28;20169;-76
2023/04/11 09:41:37;;;;;;;10.03;6.67;;;;;;;14.79;53.69;94361.53;5000222;28;20256;-75
2023/04/11 09:44:02;;;;;;;7.87;6.03;;;;;;;14.36;53.16;94353.28;5000860;28;20246;-75
2023/04/11 09:46:28;;;;;;;9.00;6.40;;;;;;;13.92;54.61;94326.00;4996969;28;20197;-75
2023/04/11 09:48:55;;;;;;;11.73;6.93;;;;;;;14.08;56.55;94340.25;4992541;28;20701;-75
2023/04/11 09:51:21;;;;;;;14.17;7.03;;;;;;;14.11;56.62;94326.50;5003240;28;20264;-75
2023/04/11 09:53:46;;;;;;;8.73;5.97;;;;;;;14.19;54.76;94335.88;5003612;28;20168;-75
2023/04/11 09:56:13;;;;;;;8.77;6.30;;;;;;;14.20;55.29;94318.94;5009717;28;20202;-75
2023/04/11 09:58:40;;;;;;;11.10;7.57;;;;;;;14.20;56.09;94313.63;5004437;28;20177;-76
2023/04/11 10:01:08;;;;;;;9.97;6.83;;;;;;;14.28;57.48;94318.50;5002068;28;20185;-76
2023/04/11 10:03:35;;;;;;;7.97;5.83;;;;;;;14.38;54.75;94312.53;4992706;28;20169;-76
2023/04/11 10:06:32;;;;;;;10.13;7.17;;;;;;;14.65;55.87;94302.81;4994809;28;20195;-76
2023/04/11 10:09:09;;;;;;;10.17;6.73;;;;;;;14.76;53.81;94301.06;4997770;28;20194;-76
2023/04/11 10:11:35;;;;;;;10.17;7.70;;;;;;;14.89;52.44;94319.19;5011520;28;20234;-75
2023/04/11 10:14:01;;;;;;;9.20;6.40;;;;;;;14.71;53.40;94302.59;5003734;28;20173;-76
2023/04/11 10:16:30;;;;;;;10.87;6.87;;;;;;;14.74;52.64;94314.56;5011072;28;20267;-76
2023/04/11 10:18:55;;;;;;;11.67;7.13;;;;;;;14.69;53.17;94302.06;5010325;28;20172;-76
2023/04/11 10:21:41;;;;;;;10.27;7.20;;;;;;;14.67;53.49;94296.22;4994461;28;20255;-76
2023/04/11 10:24:19;;;;;;;12.27;7.07;;;;;;;14.96;55.82;94301.28;4997237;28;20226;-75
2023/04/11 10:26:54;;;;;;;11.07;6.90;;;;;;;15.12;54.42;94300.34;4994819;28;20177;-76
2023/04/11 10:32:11;;;;;;;9.80;6.03;;;;;;;15.30;51.25;94291.22;5001625;28;20647;-76
2023/04/11 10:34:39;;;;;;;7.80;5.50;;;;;;;15.20;51.15;94259.31;5012340;28;20175;-78
2023/04/11 10:37:08;;;;;;;10.27;7.17;;;;;;;15.52;51.91;94286.59;5003862;28;20184;-76
2023/04/11 10:39:52;;;;;;;9.70;6.50;;;;;;;15.53;51.02;94279.44;5003893;28;20172;-76
2023/04/11 10:42:37;;;;;;;9.97;5.60;;;;;;;15.51;49.78;94276.22;5004212;28;20199;-76
2023/04/11 10:45:23;;;;;;;8.37;6.00;;;;;;;15.42;49.25;94270.59;5010614;28;20200;-75
2023/04/11 10:47:57;;;;;;;8.60;6.00;;;;;;;15.44;50.78;94261.34;5011773;28;20663;-76
2023/04/11 10:50:25;;;;;;;9.40;7.03;;;;;;;15.64;53.63;94258.06;5000529;28;20179;-77
2023/04/11 10:52:52;;;;;;;12.40;8.17;;;;;;;15.73;51.13;94242.44;4999069;28;20205;-78
2023/04/11 10:55:18;;;;;;;7.67;6.03;;;;;;;15.88;48.93;94261.09;5001055;28;20173;-77
2023/04/11 10:58:08;;;;;;;8.43;6.07;;;;;;;15.78;47.95;94253.06;5004942;28;20665;-76
2023/04/11 11:00:46;;;;;;;8.77;5.70;;;;;;;15.77;47.28;94251.47;5016273;28;20172;-76
2023/04/11 11:03:19;;;;;;;8.77;5.50;;;;;;;15.92;51.29;94246.25;5003123;28;20236;-75
2023/04/11 11:05:57;;;;;;;9.30;6.13;;;;;;;15.98;47.37;94233.81;5007230;28;20208;-75
2023/04/11 11:08:30;;;;;;;9.03;6.40;;;;;;;15.80;47.00;94221.78;5006361;28;20649;-74
2023/04/11 11:11:03;;;;;;;7.07;5.80;;;;;;;15.59;46.93;94241.28;4995132;28;20172;-75
2023/04/11 11:13:38;;;;;;;9.47;6.53;;;;;;;15.25;48.61;94233.63;5003238;28;20260;-76
2023/04/11 11:16:05;;;;;;;7.97;5.50;;;;;;;15.10;49.01;94228.22;4995634;28;20172;-75
2023/04/11 11:18:31;;;;;;;8.50;6.47;;;;;;;14.80;49.63;94212.84;5001284;28;20668;-75
2023/04/11 11:20:56;;;;;;;9.17;5.67;;;;;;;14.83;49.27;94224.81;5006100;28;20216;-75
2023/04/11 11:23:22;;;;;;;10.33;6.47;;;;;;;14.62;51.05;94224.63;4998365;28;20556;-75
2023/04/11 11:25:54;;;;;;;10.43;6.90;;;;;;;14.69;52.15;94222.59;5000416;28;20273;-75
2023/04/11 11:28:20;;;;;;;9.90;6.83;;;;;;;14.59;52.11;94182.75;4997758;28;20165;-75
2023/04/11 11:30:56;;;;;;;10.23;6.70;;;;;;;14.92;52.55;94210.03;5003015;28;20178;-75